createdAt,value
2022-12-17T00:01:04.967Z,-5.72
2022-12-17T00:03:50.703Z,-5.80
2022-12-17T00:06:36.488Z,-5.81
2022-12-17T00:09:22.166Z,-5.87
2022-12-17T00:12:07.273Z,-5.92
2022-12-17T00:14:52.492Z,-6.01
2022-12-17T00:17:51.421Z,-6.06
2022-12-17T00:20:37.288Z,-6.14
2022-12-17T00:23:23.688Z,-6.21
2022-12-17T00:26:09.973Z,-6.23
2022-12-17T00:28:55.153Z,-6.25
2022-12-17T00:31:41.707Z,-6.28
2022-12-17T00:34:28.311Z,-6.30
2022-12-17T00:37:13.504Z,-6.33
2022-12-17T00:40:01.145Z,-6.35
2022-12-17T00:42:46.261Z,-6.38
2022-12-17T00:45:31.531Z,-6.39
2022-12-17T00:48:16.762Z,-6.42
2022-12-17T00:51:03.264Z,-6.40
2022-12-17T00:53:48.237Z,-6.43
2022-12-17T00:56:33.508Z,-6.41
2022-12-17T00:59:18.868Z,-6.39
2022-12-17T01:02:03.976Z,-6.36
2022-12-17T01:04:49.070Z,-6.25
2022-12-17T01:07:35.625Z,-6.14
2022-12-17T01:10:20.772Z,-6.08
2022-12-17T01:13:05.786Z,-6.04
2022-12-17T01:15:51.194Z,-5.98
2022-12-17T01:18:37.392Z,-5.93
2022-12-17T01:21:23.311Z,-5.85
2022-12-17T01:24:09.968Z,-5.76
2022-12-17T01:26:55.240Z,-5.69
2022-12-17T01:29:41.540Z,-5.60
2022-12-17T01:32:26.340Z,-5.51
2022-12-17T01:35:11.517Z,-5.43
2022-12-17T01:37:56.656Z,-5.33
2022-12-17T01:40:57.647Z,-5.23
2022-12-17T01:43:50.643Z,-5.15
2022-12-17T01:46:36.680Z,-5.09
2022-12-17T01:49:22.490Z,-5.00
2022-12-17T01:52:10.951Z,-4.97
2022-12-17T01:54:56.851Z,-4.90
2022-12-17T01:57:44.621Z,-4.88
2022-12-17T02:00:32.026Z,-4.83
2022-12-17T02:03:32.424Z,-4.77
2022-12-17T02:06:30.630Z,-4.72
2022-12-17T02:09:25.318Z,-4.70
2022-12-17T02:12:18.873Z,-4.65
2022-12-17T02:15:11.449Z,-4.58
2022-12-17T02:18:02.713Z,-4.53
2022-12-17T02:20:51.863Z,-4.45
2022-12-17T02:23:50.477Z,-4.39
2022-12-17T02:26:48.109Z,-4.32
2022-12-17T02:29:33.976Z,-4.28
2022-12-17T02:32:20.884Z,-4.22
2022-12-17T02:35:07.237Z,-4.19
2022-12-17T02:37:52.596Z,-4.15
2022-12-17T02:40:38.684Z,-4.09
2022-12-17T02:43:40.935Z,-4.06
2022-12-17T02:46:27.318Z,-4.02
2022-12-17T02:49:20.929Z,-3.96
2022-12-17T02:52:06.805Z,-3.93
2022-12-17T02:54:53.669Z,-3.91
2022-12-17T02:57:43.612Z,-3.88
2022-12-17T03:00:31.897Z,-3.86
2022-12-17T03:03:17.066Z,-3.82
2022-12-17T03:06:02.316Z,-3.77
2022-12-17T03:08:47.527Z,-3.77
2022-12-17T03:11:32.643Z,-3.74
2022-12-17T03:14:17.985Z,-3.71
2022-12-17T03:17:04.516Z,-3.69
2022-12-17T03:20:04.360Z,-3.64
2022-12-17T03:22:49.145Z,-3.62
2022-12-17T03:25:34.265Z,-3.59
2022-12-17T03:28:23.236Z,-3.57
2022-12-17T03:31:08.373Z,-3.54
2022-12-17T03:33:55.211Z,-3.52
2022-12-17T03:36:41.020Z,-3.44
2022-12-17T03:39:26.385Z,-3.41
2022-12-17T03:42:11.333Z,-3.37
2022-12-17T03:44:56.569Z,-3.32
2022-12-17T03:47:41.897Z,-3.27
2022-12-17T03:50:28.318Z,-3.21
2022-12-17T03:53:13.504Z,-3.16
2022-12-17T03:55:58.825Z,-3.12
2022-12-17T03:58:44.077Z,-3.06
2022-12-17T04:01:29.458Z,-3.03
2022-12-17T04:04:14.439Z,-3.01
2022-12-17T04:07:00.980Z,-2.99
2022-12-17T04:09:46.368Z,-2.99
2022-12-17T04:12:31.437Z,-3.01
2022-12-17T04:15:25.163Z,-3.04
2022-12-17T04:18:10.678Z,-3.05
2022-12-17T04:21:07.406Z,-3.09
2022-12-17T04:23:54.078Z,-3.10
2022-12-17T04:26:39.362Z,-3.08
2022-12-17T04:29:24.649Z,-3.07
2022-12-17T04:32:09.745Z,-3.06
2022-12-17T04:34:55.064Z,-3.07
2022-12-17T04:37:40.421Z,-3.04
2022-12-17T04:40:28.895Z,-3.05
2022-12-17T04:43:14.454Z,-3.07
2022-12-17T04:45:59.709Z,-3.08
2022-12-17T04:48:44.872Z,-3.11
2022-12-17T04:51:30.066Z,-3.13
2022-12-17T04:54:15.387Z,-3.10
2022-12-17T04:57:02.032Z,-3.10
2022-12-17T04:59:47.427Z,-3.06
2022-12-17T05:02:32.441Z,-3.07
2022-12-17T05:05:17.549Z,-3.08
2022-12-17T05:08:02.773Z,-3.11
2022-12-17T05:10:48.146Z,-3.14
2022-12-17T05:13:34.849Z,-3.15
2022-12-17T05:16:20.341Z,-3.15
2022-12-17T05:19:05.361Z,-3.15
2022-12-17T05:21:50.172Z,-3.15
2022-12-17T05:24:35.589Z,-3.13
2022-12-17T05:27:20.854Z,-3.12
2022-12-17T05:30:07.378Z,-3.09
2022-12-17T05:32:52.484Z,-3.07
2022-12-17T05:35:37.613Z,-3.08
2022-12-17T05:38:23.848Z,-3.08
2022-12-17T05:41:09.067Z,-3.08
2022-12-17T05:43:54.589Z,-3.07
2022-12-17T05:46:41.379Z,-3.09
2022-12-17T05:49:26.359Z,-3.13
2022-12-17T05:52:11.318Z,-3.16
2022-12-17T05:55:08.105Z,-3.14
2022-12-17T05:57:56.351Z,-3.09
2022-12-17T06:00:42.241Z,-3.07
2022-12-17T06:03:28.581Z,-3.02
2022-12-17T06:06:15.205Z,-3.00
2022-12-17T06:09:00.340Z,-2.97
2022-12-17T06:11:45.345Z,-2.96
2022-12-17T06:14:30.692Z,-2.93
2022-12-17T06:17:15.941Z,-2.93
2022-12-17T06:20:02.624Z,-2.95
2022-12-17T06:22:47.658Z,-2.92
2022-12-17T06:25:32.984Z,-2.91
2022-12-17T06:28:18.870Z,-2.87
2022-12-17T06:31:09.114Z,-2.84
2022-12-17T06:33:54.456Z,-2.83
2022-12-17T06:36:40.995Z,-2.82
2022-12-17T06:39:26.154Z,-2.80
2022-12-17T06:42:11.116Z,-2.80
2022-12-17T06:45:01.693Z,-2.80
2022-12-17T06:47:46.843Z,-2.80
2022-12-17T06:50:32.084Z,-2.83
2022-12-17T06:53:20.333Z,-2.84
2022-12-17T06:56:05.451Z,-2.84
2022-12-17T06:58:50.725Z,-2.83
2022-12-17T07:01:36.159Z,-2.84
2022-12-17T07:04:21.995Z,-2.84
2022-12-17T07:07:15.656Z,-2.83
2022-12-17T07:10:02.151Z,-2.81
2022-12-17T07:12:47.148Z,-2.80
2022-12-17T07:15:32.364Z,-2.81
2022-12-17T07:18:19.088Z,-2.78
2022-12-17T07:21:04.836Z,-2.78
2022-12-17T07:23:50.836Z,-2.81
2022-12-17T07:26:37.462Z,-2.80
2022-12-17T07:29:22.729Z,-2.79
2022-12-17T07:32:07.881Z,-2.78
2022-12-17T07:34:53.111Z,-2.78
2022-12-17T07:37:38.612Z,-2.78
2022-12-17T07:40:25.059Z,-2.75
2022-12-17T07:43:11.287Z,-2.71
2022-12-17T07:45:56.714Z,-2.70
2022-12-17T07:48:56.235Z,-2.71
2022-12-17T07:51:41.221Z,-2.73
2022-12-17T07:54:26.154Z,-2.73
2022-12-17T07:57:11.587Z,-2.71
2022-12-17T07:59:58.141Z,-2.67
2022-12-17T08:02:43.179Z,-2.67
2022-12-17T08:05:28.416Z,-2.63
2022-12-17T08:08:13.632Z,-2.61
2022-12-17T08:10:59.015Z,-2.59
2022-12-17T08:13:43.918Z,-2.62
2022-12-17T08:16:30.333Z,-2.61
2022-12-17T08:19:15.809Z,-2.58
2022-12-17T08:22:00.805Z,-2.54
2022-12-17T08:24:46.215Z,-2.53
2022-12-17T08:27:31.467Z,-2.63
2022-12-17T08:30:16.884Z,-2.58
2022-12-17T08:33:03.495Z,-2.55
2022-12-17T08:35:48.680Z,-2.52
2022-12-17T08:38:34.208Z,-2.50
2022-12-17T08:41:20.221Z,-2.48
2022-12-17T08:44:05.297Z,-2.50
2022-12-17T08:46:50.680Z,-2.49
2022-12-17T08:49:37.017Z,-2.45
2022-12-17T08:52:22.581Z,-2.47
2022-12-17T08:55:07.811Z,-2.49
2022-12-17T08:57:53.096Z,-2.48
2022-12-17T09:00:38.515Z,-2.51
2022-12-17T09:03:23.882Z,-2.60
2022-12-17T09:06:10.852Z,-2.57
2022-12-17T09:08:56.057Z,-2.52
2022-12-17T09:11:41.261Z,-2.60
2022-12-17T09:14:26.853Z,-2.46
2022-12-17T09:17:11.944Z,-2.35
2022-12-17T09:19:57.288Z,-2.32
2022-12-17T09:22:43.540Z,-2.36
2022-12-17T09:25:28.790Z,-2.30
2022-12-17T09:28:18.626Z,-2.32
2022-12-17T09:31:06.298Z,-2.25
2022-12-17T09:33:51.596Z,-2.19
2022-12-17T09:36:36.758Z,-2.14
2022-12-17T09:39:23.591Z,-2.17
2022-12-17T09:42:19.301Z,-2.11
2022-12-17T09:45:10.149Z,-2.21
2022-12-17T09:48:06.661Z,-2.22
2022-12-17T09:50:52.365Z,-2.22
2022-12-17T09:53:42.181Z,-2.17
2022-12-17T09:56:32.279Z,-2.05
2022-12-17T09:59:17.556Z,-2.04
2022-12-17T10:02:03.246Z,-2.01
2022-12-17T10:04:53.336Z,-1.96
2022-12-17T10:07:41.024Z,-1.93
2022-12-17T10:10:36.372Z,-1.92
2022-12-17T10:13:29.167Z,-1.82
2022-12-17T10:16:25.936Z,-1.77
2022-12-17T10:19:11.199Z,-1.65
2022-12-17T10:21:59.761Z,-1.67
2022-12-17T10:24:45.208Z,-1.55
2022-12-17T10:27:36.472Z,-1.57
2022-12-17T10:30:23.903Z,-1.65
2022-12-17T10:33:14.444Z,-1.74
2022-12-17T10:36:02.053Z,-1.65
2022-12-17T10:38:49.503Z,-1.51
2022-12-17T10:41:44.787Z,-1.56
2022-12-17T10:44:44.159Z,-1.56
2022-12-17T10:47:34.984Z,-1.47
2022-12-17T10:50:22.333Z,-1.45
2022-12-17T10:53:07.517Z,-1.21
2022-12-17T10:55:53.819Z,-0.97
2022-12-17T10:58:41.636Z,-0.81
2022-12-17T11:01:31.226Z,-0.86
2022-12-17T11:04:17.830Z,-0.93
2022-12-17T11:07:05.108Z,-1.06
2022-12-17T11:10:08.620Z,-1.09
2022-12-17T11:12:58.481Z,-1.16
2022-12-17T11:15:49.983Z,-1.14
2022-12-17T11:18:39.351Z,-1.23
2022-12-17T11:21:30.437Z,-1.33
2022-12-17T11:24:22.215Z,-1.34
2022-12-17T11:27:12.321Z,-1.36
2022-12-17T11:29:57.693Z,-1.33
2022-12-17T11:32:59.876Z,-1.23
2022-12-17T11:35:49.106Z,-1.16
2022-12-17T11:38:44.656Z,-1.13
2022-12-17T11:41:35.469Z,-1.16
2022-12-17T11:44:30.908Z,-1.24
2022-12-17T11:47:44.685Z,-1.32
2022-12-17T11:50:41.821Z,-1.35
2022-12-17T11:53:40.256Z,-1.32
2022-12-17T11:56:34.709Z,-1.49
2022-12-17T11:59:27.467Z,-1.37
2022-12-17T12:02:23.015Z,-1.41
2022-12-17T12:05:32.636Z,-1.38
2022-12-17T12:08:25.541Z,-1.33
2022-12-17T12:11:19.014Z,-1.35
2022-12-17T12:14:13.399Z,-1.41
2022-12-17T12:17:08.670Z,-1.37
2022-12-17T12:20:04.518Z,-1.39
2022-12-17T12:22:54.009Z,-1.38
2022-12-17T12:25:49.837Z,-1.40
2022-12-17T12:28:45.232Z,-1.51
2022-12-17T12:31:42.913Z,-1.57
2022-12-17T12:34:32.693Z,-1.70
2022-12-17T12:37:20.564Z,-1.74
2022-12-17T12:40:12.599Z,-1.81
2022-12-17T12:43:03.214Z,-1.82
2022-12-17T12:45:56.545Z,-1.68
2022-12-17T12:48:57.030Z,-1.62
2022-12-17T12:51:44.789Z,-1.62
2022-12-17T12:54:49.040Z,-1.70
2022-12-17T12:57:48.970Z,-1.67
2022-12-17T13:00:42.521Z,-1.61
2022-12-17T13:03:39.401Z,-1.70
2022-12-17T13:06:09.019Z,-1.71
2022-12-17T13:08:37.129Z,-1.65
2022-12-17T13:11:13.082Z,-1.74
2022-12-17T13:13:56.147Z,-1.75
2022-12-17T13:16:36.393Z,-1.87
2022-12-17T13:19:06.789Z,-1.85
2022-12-17T13:21:35.993Z,-1.87
2022-12-17T13:24:12.396Z,-1.92
2022-12-17T13:26:46.226Z,-1.94
2022-12-17T13:29:23.314Z,-2.00
2022-12-17T13:32:09.356Z,-2.09
2022-12-17T13:34:47.893Z,-2.13
2022-12-17T13:37:27.744Z,-2.21
2022-12-17T13:40:04.508Z,-2.25
2022-12-17T13:42:35.695Z,-2.29
2022-12-17T13:45:03.608Z,-2.34
2022-12-17T13:47:33.602Z,-2.37
2022-12-17T13:50:32.783Z,-2.46
2022-12-17T13:52:52.771Z,-2.50
2022-12-17T13:55:23.013Z,-2.56
2022-12-17T13:57:52.557Z,-2.62
2022-12-17T14:00:23.717Z,-2.59
2022-12-17T14:02:51.689Z,-2.63
2022-12-17T14:05:30.427Z,-2.67
2022-12-17T14:08:02.869Z,-2.68
2022-12-17T14:10:30.879Z,-2.74
2022-12-17T14:13:06.011Z,-2.73
2022-12-17T14:15:34.069Z,-2.71
2022-12-17T14:45:27.592Z,-3.39
2022-12-17T14:47:56.956Z,-3.48
2022-12-17T14:50:28.740Z,-3.49
2022-12-17T14:52:57.890Z,-3.53
2022-12-17T14:55:29.082Z,-3.54
2022-12-17T14:58:09.673Z,-3.54
2022-12-17T15:00:40.886Z,-3.55
2022-12-17T15:03:12.342Z,-3.55
2022-12-17T15:05:40.062Z,-3.56
2022-12-17T15:08:07.700Z,-3.59
2022-12-17T15:10:35.298Z,-3.61
2022-12-17T15:13:02.931Z,-3.63
2022-12-17T15:15:30.508Z,-3.64
2022-12-17T15:17:59.751Z,-3.67
2022-12-17T15:20:27.416Z,-3.69
2022-12-17T15:22:55.147Z,-3.75
2022-12-17T15:25:23.037Z,-3.74
2022-12-17T15:27:50.712Z,-3.76
2022-12-17T15:30:19.551Z,-3.77
2022-12-17T15:32:47.387Z,-3.77
2022-12-17T15:35:16.463Z,-3.77
2022-12-17T15:37:44.072Z,-3.77
2022-12-17T15:40:12.391Z,-3.75
2022-12-17T15:43:02.922Z,-3.73
2022-12-17T15:45:33.104Z,-3.72
2022-12-17T15:48:00.816Z,-3.73
2022-12-17T15:50:29.691Z,-3.71
2022-12-17T15:52:57.584Z,-3.69
2022-12-17T15:55:25.210Z,-3.69
2022-12-17T15:57:52.790Z,-3.68
2022-12-17T16:00:20.634Z,-3.67
2022-12-17T16:02:48.511Z,-3.67
2022-12-17T16:05:16.665Z,-3.68
2022-12-17T16:07:45.631Z,-3.66
2022-12-17T16:10:15.438Z,-3.69
2022-12-17T16:12:43.401Z,-3.66
2022-12-17T16:15:12.100Z,-3.67
2022-12-17T16:17:39.729Z,-3.68
2022-12-17T16:20:08.492Z,-3.69
2022-12-17T16:22:36.265Z,-3.67
2022-12-17T16:25:05.881Z,-3.69
2022-12-17T16:27:33.417Z,-3.64
2022-12-17T16:30:01.118Z,-3.68
2022-12-17T16:32:33.061Z,-3.70
2022-12-17T16:35:04.682Z,-3.69
2022-12-17T16:37:32.242Z,-3.71
2022-12-17T16:40:00.567Z,-3.72
2022-12-17T16:42:29.743Z,-3.68
2022-12-17T16:44:57.431Z,-3.73
2022-12-17T16:47:25.034Z,-3.73
2022-12-17T16:49:52.641Z,-3.75
2022-12-17T16:52:20.179Z,-3.73
2022-12-17T16:54:48.469Z,-3.74
2022-12-17T16:57:16.038Z,-3.74
2022-12-17T17:00:11.985Z,-3.72
2022-12-17T17:02:39.755Z,-3.70
2022-12-17T17:05:08.009Z,-3.70
2022-12-17T17:07:35.589Z,-3.66
2022-12-17T17:10:03.128Z,-3.66
2022-12-17T17:12:30.697Z,-3.64
2022-12-17T17:14:58.305Z,-3.70
2022-12-17T17:17:55.690Z,-3.71
2022-12-17T17:20:15.840Z,-3.74
2022-12-17T17:22:43.712Z,-3.74
2022-12-17T17:25:11.554Z,-3.74
2022-12-17T17:27:39.351Z,-3.78
2022-12-17T17:30:07.943Z,-3.81
2022-12-17T17:32:37.221Z,-3.83
2022-12-17T17:35:05.685Z,-3.88
2022-12-17T17:37:33.415Z,-3.90
2022-12-17T17:40:01.012Z,-3.94
2022-12-17T17:42:28.596Z,-3.94
2022-12-17T17:44:56.161Z,-3.97
2022-12-17T17:47:23.772Z,-3.98
2022-12-17T17:49:52.722Z,-3.99
2022-12-17T17:52:20.649Z,-4.00
2022-12-17T17:54:48.634Z,-3.98
2022-12-17T17:57:16.249Z,-4.00
2022-12-17T17:59:43.864Z,-4.02
2022-12-17T18:02:13.192Z,-4.02
2022-12-17T18:04:40.879Z,-4.00
2022-12-17T18:07:25.359Z,-3.99
2022-12-17T18:09:53.983Z,-4.02
2022-12-17T18:12:39.957Z,-4.02
2022-12-17T18:15:17.309Z,-4.04
2022-12-17T18:17:47.119Z,-4.14
2022-12-17T18:20:14.904Z,-4.14
2022-12-17T18:22:45.750Z,-4.12
2022-12-17T18:25:13.430Z,-4.12
2022-12-17T18:27:41.065Z,-4.12
2022-12-17T18:30:09.709Z,-4.16
2022-12-17T18:32:37.258Z,-4.16
2022-12-17T18:35:05.481Z,-4.19
2022-12-17T18:37:33.085Z,-4.19
2022-12-17T18:40:02.109Z,-4.16
2022-12-17T18:42:47.432Z,-4.17
2022-12-17T18:45:15.096Z,-4.16
2022-12-17T18:47:44.498Z,-4.22
2022-12-17T18:50:13.021Z,-4.21
2022-12-17T18:52:40.797Z,-4.23
2022-12-17T18:55:12.872Z,-4.27
2022-12-17T18:57:41.758Z,-4.29
2022-12-17T19:00:10.753Z,-4.34
2022-12-17T19:02:38.528Z,-4.32
2022-12-17T19:05:06.545Z,-4.34
2022-12-17T19:07:34.153Z,-4.34
2022-12-17T19:10:01.736Z,-4.32
2022-12-17T19:12:30.661Z,-4.32
2022-12-17T19:14:58.314Z,-4.34
2022-12-17T19:17:26.378Z,-4.36
2022-12-17T19:19:53.994Z,-4.36
2022-12-17T19:22:21.562Z,-4.35
2022-12-17T19:24:49.170Z,-4.41
2022-12-17T19:27:16.759Z,-4.45
2022-12-17T19:29:49.448Z,-4.45
2022-12-17T19:32:17.779Z,-4.47
2022-12-17T19:34:45.430Z,-4.50
2022-12-17T19:37:13.115Z,-4.50
2022-12-17T19:39:40.717Z,-4.51
2022-12-17T19:42:24.188Z,-4.53
2022-12-17T19:44:54.998Z,-4.53
2022-12-17T19:47:23.629Z,-4.56
2022-12-17T19:49:51.261Z,-4.55
2022-12-17T19:52:18.841Z,-4.59
2022-12-17T19:54:46.501Z,-4.60
2022-12-17T19:57:14.103Z,-4.60
2022-12-17T19:59:41.895Z,-4.58
2022-12-17T20:02:11.627Z,-4.59
2022-12-17T20:04:39.723Z,-4.58
2022-12-17T20:07:07.410Z,-4.68
2022-12-17T20:09:34.952Z,-4.67
2022-12-17T20:12:02.521Z,-4.70
2022-12-17T20:14:30.548Z,-4.70
2022-12-17T20:17:00.421Z,-4.72
2022-12-17T20:19:33.053Z,-4.73
2022-12-17T20:22:02.368Z,-4.76
2022-12-17T20:24:31.964Z,-4.76
2022-12-17T20:27:01.007Z,-4.77
2022-12-17T20:29:28.959Z,-4.74
2022-12-17T20:31:57.145Z,-4.76
2022-12-17T20:34:25.640Z,-4.78
2022-12-17T20:36:55.418Z,-4.80
2022-12-17T20:39:27.789Z,-4.84
2022-12-17T20:41:56.360Z,-4.85
2022-12-17T20:44:24.324Z,-4.88
2022-12-17T20:46:51.901Z,-4.94
2022-12-17T20:49:19.628Z,-5.02
2022-12-17T20:51:47.510Z,-5.05
2022-12-17T20:54:16.503Z,-5.10
2022-12-17T20:56:44.181Z,-5.18
2022-12-17T20:59:16.215Z,-5.26
2022-12-17T21:01:44.147Z,-5.33
2022-12-17T21:04:13.445Z,-5.37
2022-12-17T21:06:42.895Z,-5.44
2022-12-17T21:09:11.644Z,-5.50
2022-12-17T21:11:42.263Z,-5.55
2022-12-17T21:14:11.554Z,-5.62
2022-12-17T21:16:42.108Z,-5.68
2022-12-17T21:19:12.468Z,-5.72
2022-12-17T21:21:40.244Z,-5.76
2022-12-17T21:24:10.089Z,-5.79
2022-12-17T21:26:40.921Z,-5.83
2022-12-17T21:29:10.194Z,-5.86
2022-12-17T21:31:40.414Z,-5.89
2022-12-17T21:34:12.047Z,-5.90
2022-12-17T21:36:39.954Z,-5.93
2022-12-17T21:39:09.227Z,-5.96
2022-12-17T21:41:39.370Z,-5.97
2022-12-17T21:44:15.617Z,-6.00
2022-12-17T21:46:46.324Z,-6.00
2022-12-17T21:49:17.823Z,-6.01
2022-12-17T21:51:45.779Z,-6.03
2022-12-17T21:54:19.210Z,-6.05
2022-12-17T21:56:47.602Z,-6.03
2022-12-17T21:59:16.638Z,-6.03
2022-12-17T22:01:44.503Z,-6.03
2022-12-17T22:04:12.343Z,-5.99
2022-12-17T22:06:49.697Z,-6.01
2022-12-17T22:09:40.031Z,-6.01
2022-12-17T22:12:32.392Z,-6.00
2022-12-17T22:15:01.318Z,-5.97
2022-12-17T22:17:29.401Z,-5.97
2022-12-17T22:19:56.989Z,-6.02
2022-12-17T22:22:24.532Z,-6.02
2022-12-17T22:24:52.087Z,-6.03
2022-12-17T22:27:19.782Z,-6.06
2022-12-17T22:30:04.881Z,-6.06
2022-12-17T22:32:51.385Z,-6.08
2022-12-17T22:36:55.473Z,-6.09
2022-12-17T22:41:07.579Z,-6.10
2022-12-17T22:44:18.491Z,-6.13
2022-12-17T22:44:36.806Z,-6.14
2022-12-17T22:46:31.459Z,-6.19
2022-12-17T22:49:00.479Z,-6.22
2022-12-17T22:51:30.294Z,-6.25
2022-12-17T22:54:08.956Z,-6.29
2022-12-17T22:57:34.766Z,-6.31
2022-12-17T22:59:25.621Z,-6.33
2022-12-17T23:01:53.237Z,-6.37
2022-12-17T23:04:22.466Z,-6.39
2022-12-17T23:06:50.135Z,-6.43
2022-12-17T23:09:20.144Z,-6.44
2022-12-17T23:11:49.552Z,-6.45
2022-12-17T23:14:18.016Z,-6.46
2022-12-17T23:16:47.156Z,-6.48
2022-12-17T23:19:15.200Z,-6.50
2022-12-17T23:21:44.210Z,-6.52
2022-12-17T23:24:11.785Z,-6.53
2022-12-17T23:26:40.736Z,-6.56
2022-12-17T23:29:19.133Z,-6.61
2022-12-17T23:31:47.856Z,-6.72
2022-12-17T23:34:16.080Z,-6.77
2022-12-17T23:36:45.011Z,-6.75
2022-12-17T23:39:12.662Z,-6.78
2022-12-17T23:41:40.289Z,-6.75
2022-12-17T23:44:07.898Z,-6.70
2022-12-17T23:46:35.537Z,-6.67
2022-12-17T23:49:05.415Z,-6.64
2022-12-17T23:51:33.928Z,-6.61
2022-12-17T23:54:02.952Z,-6.61
2022-12-17T23:56:30.766Z,-6.58
2022-12-17T23:59:00.147Z,-6.56
